sensor_id;sensor_type;location;lat;lon;timestamp;P1;durP1;ratioP1;P2;durP2;ratioP2
20731;SDS011;10527;52.124;5.196;2023-12-20T00:01:27;13.00;;;2.40;;
20731;SDS011;10527;52.124;5.196;2023-12-20T00:03:55;8.97;;;2.10;;
20731;SDS011;10527;52.124;5.196;2023-12-20T00:06:22;14.17;;;2.27;;
20731;SDS011;10527;52.124;5.196;2023-12-20T00:08:50;5.90;;;1.50;;
20731;SDS011;10527;52.124;5.196;2023-12-20T00:11:18;7.20;;;1.67;;
20731;SDS011;10527;52.124;5.196;2023-12-20T00:13:45;8.37;;;1.80;;
20731;SDS011;10527;52.124;5.196;2023-12-20T00:16:17;5.70;;;1.40;;
20731;SDS011;10527;52.124;5.196;2023-12-20T00:18:44;4.53;;;1.43;;
20731;SDS011;10527;52.124;5.196;2023-12-20T00:21:12;12.17;;;1.87;;
20731;SDS011;10527;52.124;5.196;2023-12-20T00:23:39;6.10;;;1.53;;
20731;SDS011;10527;52.124;5.196;2023-12-20T00:26:07;8.00;;;1.65;;
20731;SDS011;10527;52.124;5.196;2023-12-20T00:28:34;8.43;;;1.30;;
20731;SDS011;10527;52.124;5.196;2023-12-20T00:31:02;6.27;;;1.10;;
20731;SDS011;10527;52.124;5.196;2023-12-20T00:33:29;7.77;;;1.50;;
20731;SDS011;10527;52.124;5.196;2023-12-20T00:35:57;7.67;;;1.63;;
20731;SDS011;10527;52.124;5.196;2023-12-20T00:38:25;9.50;;;1.77;;
20731;SDS011;10527;52.124;5.196;2023-12-20T00:40:52;7.63;;;1.60;;
20731;SDS011;10527;52.124;5.196;2023-12-20T00:43:20;7.87;;;1.53;;
20731;SDS011;10527;52.124;5.196;2023-12-20T00:45:47;7.93;;;1.83;;
20731;SDS011;10527;52.124;5.196;2023-12-20T00:48:15;9.67;;;2.17;;
20731;SDS011;10527;52.124;5.196;2023-12-20T00:50:42;8.43;;;1.87;;
20731;SDS011;10527;52.124;5.196;2023-12-20T00:53:10;6.03;;;1.50;;
20731;SDS011;10527;52.124;5.196;2023-12-20T00:55:37;14.57;;;1.97;;
20731;SDS011;10527;52.124;5.196;2023-12-20T00:58:05;8.33;;;1.67;;
20731;SDS011;10527;52.124;5.196;2023-12-20T01:00:32;9.40;;;1.87;;
20731;SDS011;10527;52.124;5.196;2023-12-20T01:03:00;9.23;;;2.40;;
20731;SDS011;10527;52.124;5.196;2023-12-20T01:05:27;7.83;;;1.93;;
20731;SDS011;10527;52.124;5.196;2023-12-20T01:07:55;8.47;;;2.00;;
20731;SDS011;10527;52.124;5.196;2023-12-20T01:10:22;10.40;;;2.63;;
20731;SDS011;10527;52.124;5.196;2023-12-20T01:12:50;7.30;;;1.67;;
20731;SDS011;10527;52.124;5.196;2023-12-20T01:15:17;6.97;;;1.80;;
20731;SDS011;10527;52.124;5.196;2023-12-20T01:17:44;8.90;;;1.83;;
20731;SDS011;10527;52.124;5.196;2023-12-20T01:20:13;9.47;;;1.70;;
20731;SDS011;10527;52.124;5.196;2023-12-20T01:22:41;5.20;;;1.43;;
20731;SDS011;10527;52.124;5.196;2023-12-20T01:25:09;9.37;;;1.67;;
20731;SDS011;10527;52.124;5.196;2023-12-20T01:27:36;9.23;;;1.73;;
20731;SDS011;10527;52.124;5.196;2023-12-20T01:30:04;11.43;;;2.90;;
20731;SDS011;10527;52.124;5.196;2023-12-20T01:32:32;12.50;;;2.10;;
20731;SDS011;10527;52.124;5.196;2023-12-20T01:35:00;9.23;;;1.63;;
20731;SDS011;10527;52.124;5.196;2023-12-20T01:37:28;6.77;;;1.57;;
20731;SDS011;10527;52.124;5.196;2023-12-20T01:39:56;12.10;;;2.03;;
20731;SDS011;10527;52.124;5.196;2023-12-20T01:42:23;9.63;;;1.70;;
20731;SDS011;10527;52.124;5.196;2023-12-20T01:44:51;7.87;;;1.73;;
20731;SDS011;10527;52.124;5.196;2023-12-20T01:47:18;8.37;;;2.27;;
20731;SDS011;10527;52.124;5.196;2023-12-20T01:49:48;9.37;;;2.37;;
20731;SDS011;10527;52.124;5.196;2023-12-20T01:52:16;8.37;;;1.90;;
20731;SDS011;10527;52.124;5.196;2023-12-20T01:54:46;8.53;;;1.93;;
20731;SDS011;10527;52.124;5.196;2023-12-20T01:57:15;13.30;;;2.60;;
20731;SDS011;10527;52.124;5.196;2023-12-20T01:59:42;10.73;;;2.33;;
20731;SDS011;10527;52.124;5.196;2023-12-20T02:02:11;7.93;;;2.43;;
20731;SDS011;10527;52.124;5.196;2023-12-20T02:04:39;7.33;;;2.20;;
20731;SDS011;10527;52.124;5.196;2023-12-20T02:07:06;11.03;;;2.50;;
20731;SDS011;10527;52.124;5.196;2023-12-20T02:09:35;8.23;;;2.17;;
20731;SDS011;10527;52.124;5.196;2023-12-20T02:12:04;17.67;;;3.57;;
20731;SDS011;10527;52.124;5.196;2023-12-20T02:14:32;8.17;;;1.73;;
20731;SDS011;10527;52.124;5.196;2023-12-20T02:17:00;12.67;;;2.67;;
20731;SDS011;10527;52.124;5.196;2023-12-20T02:19:27;10.07;;;1.87;;
20731;SDS011;10527;52.124;5.196;2023-12-20T02:22:06;11.27;;;2.20;;
20731;SDS011;10527;52.124;5.196;2023-12-20T02:24:37;10.30;;;2.37;;
20731;SDS011;10527;52.124;5.196;2023-12-20T02:27:05;8.37;;;2.30;;
20731;SDS011;10527;52.124;5.196;2023-12-20T02:29:34;11.03;;;2.67;;
20731;SDS011;10527;52.124;5.196;2023-12-20T02:32:02;11.30;;;2.20;;
20731;SDS011;10527;52.124;5.196;2023-12-20T02:34:29;13.23;;;2.87;;
20731;SDS011;10527;52.124;5.196;2023-12-20T02:36:57;10.63;;;2.20;;
20731;SDS011;10527;52.124;5.196;2023-12-20T02:39:25;9.77;;;2.00;;
20731;SDS011;10527;52.124;5.196;2023-12-20T02:41:53;9.60;;;2.97;;
20731;SDS011;10527;52.124;5.196;2023-12-20T02:44:20;12.30;;;2.30;;
20731;SDS011;10527;52.124;5.196;2023-12-20T02:46:48;10.03;;;2.20;;
20731;SDS011;10527;52.124;5.196;2023-12-20T02:49:15;8.97;;;2.03;;
20731;SDS011;10527;52.124;5.196;2023-12-20T02:51:43;13.23;;;2.73;;
20731;SDS011;10527;52.124;5.196;2023-12-20T02:54:10;10.10;;;2.33;;
20731;SDS011;10527;52.124;5.196;2023-12-20T02:56:38;12.03;;;2.30;;
20731;SDS011;10527;52.124;5.196;2023-12-20T02:59:05;11.50;;;2.37;;
20731;SDS011;10527;52.124;5.196;2023-12-20T03:01:34;14.30;;;2.67;;
20731;SDS011;10527;52.124;5.196;2023-12-20T03:04:12;14.27;;;3.57;;
20731;SDS011;10527;52.124;5.196;2023-12-20T03:06:40;10.10;;;2.60;;
20731;SDS011;10527;52.124;5.196;2023-12-20T03:09:08;12.87;;;2.70;;
20731;SDS011;10527;52.124;5.196;2023-12-20T03:11:35;7.80;;;1.93;;
20731;SDS011;10527;52.124;5.196;2023-12-20T03:14:03;13.27;;;3.37;;
20731;SDS011;10527;52.124;5.196;2023-12-20T03:16:30;9.67;;;1.90;;
20731;SDS011;10527;52.124;5.196;2023-12-20T03:19:02;20.33;;;4.03;;
20731;SDS011;10527;52.124;5.196;2023-12-20T03:21:30;13.47;;;2.63;;
20731;SDS011;10527;52.124;5.196;2023-12-20T03:23:57;13.13;;;2.83;;
20731;SDS011;10527;52.124;5.196;2023-12-20T03:26:25;8.60;;;2.27;;
20731;SDS011;10527;52.124;5.196;2023-12-20T03:28:52;12.17;;;2.63;;
20731;SDS011;10527;52.124;5.196;2023-12-20T03:31:20;9.80;;;2.70;;
20731;SDS011;10527;52.124;5.196;2023-12-20T03:33:48;8.10;;;1.97;;
20731;SDS011;10527;52.124;5.196;2023-12-20T03:36:17;16.90;;;2.90;;
20731;SDS011;10527;52.124;5.196;2023-12-20T03:38:45;12.53;;;3.00;;
20731;SDS011;10527;52.124;5.196;2023-12-20T03:41:13;15.73;;;2.90;;
20731;SDS011;10527;52.124;5.196;2023-12-20T03:43:41;11.07;;;2.90;;
20731;SDS011;10527;52.124;5.196;2023-12-20T03:46:09;10.47;;;2.90;;
20731;SDS011;10527;52.124;5.196;2023-12-20T03:48:36;17.00;;;2.33;;
20731;SDS011;10527;52.124;5.196;2023-12-20T03:51:04;9.80;;;2.83;;
20731;SDS011;10527;52.124;5.196;2023-12-20T03:53:31;10.60;;;3.03;;
20731;SDS011;10527;52.124;5.196;2023-12-20T03:55:59;14.27;;;3.73;;
20731;SDS011;10527;52.124;5.196;2023-12-20T03:58:26;15.77;;;3.27;;
20731;SDS011;10527;52.124;5.196;2023-12-20T04:00:53;8.53;;;2.10;;
20731;SDS011;10527;52.124;5.196;2023-12-20T04:03:21;7.53;;;2.33;;
20731;SDS011;10527;52.124;5.196;2023-12-20T04:05:48;9.80;;;2.60;;
20731;SDS011;10527;52.124;5.196;2023-12-20T04:08:16;8.40;;;2.07;;
20731;SDS011;10527;52.124;5.196;2023-12-20T04:10:43;10.90;;;2.50;;
20731;SDS011;10527;52.124;5.196;2023-12-20T04:13:11;9.83;;;2.50;;
20731;SDS011;10527;52.124;5.196;2023-12-20T04:15:38;11.80;;;2.43;;
20731;SDS011;10527;52.124;5.196;2023-12-20T04:18:06;10.20;;;1.80;;
20731;SDS011;10527;52.124;5.196;2023-12-20T04:20:33;16.37;;;2.73;;
20731;SDS011;10527;52.124;5.196;2023-12-20T04:23:01;9.13;;;2.37;;
20731;SDS011;10527;52.124;5.196;2023-12-20T04:25:29;14.57;;;2.53;;
20731;SDS011;10527;52.124;5.196;2023-12-20T04:27:56;16.03;;;4.10;;
20731;SDS011;10527;52.124;5.196;2023-12-20T04:30:23;15.47;;;2.67;;
20731;SDS011;10527;52.124;5.196;2023-12-20T04:32:51;13.00;;;2.50;;
20731;SDS011;10527;52.124;5.196;2023-12-20T04:35:19;12.47;;;2.77;;
20731;SDS011;10527;52.124;5.196;2023-12-20T04:37:46;10.20;;;2.90;;
20731;SDS011;10527;52.124;5.196;2023-12-20T04:40:15;11.90;;;2.87;;
20731;SDS011;10527;52.124;5.196;2023-12-20T04:42:43;9.03;;;2.33;;
20731;SDS011;10527;52.124;5.196;2023-12-20T04:45:10;15.53;;;2.73;;
20731;SDS011;10527;52.124;5.196;2023-12-20T04:47:41;10.90;;;2.20;;
20731;SDS011;10527;52.124;5.196;2023-12-20T04:50:09;13.83;;;2.50;;
20731;SDS011;10527;52.124;5.196;2023-12-20T04:52:40;12.43;;;2.67;;
20731;SDS011;10527;52.124;5.196;2023-12-20T04:55:07;11.03;;;2.27;;
20731;SDS011;10527;52.124;5.196;2023-12-20T04:57:35;14.60;;;2.73;;
20731;SDS011;10527;52.124;5.196;2023-12-20T05:00:03;9.07;;;2.27;;
20731;SDS011;10527;52.124;5.196;2023-12-20T05:02:31;17.03;;;2.90;;
20731;SDS011;10527;52.124;5.196;2023-12-20T05:04:58;18.10;;;2.93;;
20731;SDS011;10527;52.124;5.196;2023-12-20T05:07:25;14.53;;;2.80;;
20731;SDS011;10527;52.124;5.196;2023-12-20T05:09:53;12.63;;;2.60;;
20731;SDS011;10527;52.124;5.196;2023-12-20T05:12:21;17.97;;;3.73;;
20731;SDS011;10527;52.124;5.196;2023-12-20T05:14:48;11.40;;;2.57;;
20731;SDS011;10527;52.124;5.196;2023-12-20T05:17:15;9.80;;;3.13;;
20731;SDS011;10527;52.124;5.196;2023-12-20T05:19:43;11.80;;;2.93;;
20731;SDS011;10527;52.124;5.196;2023-12-20T05:22:10;13.03;;;3.60;;
20731;SDS011;10527;52.124;5.196;2023-12-20T05:24:38;14.23;;;3.70;;
20731;SDS011;10527;52.124;5.196;2023-12-20T05:27:05;15.70;;;2.93;;
20731;SDS011;10527;52.124;5.196;2023-12-20T05:29:34;11.83;;;4.33;;
20731;SDS011;10527;52.124;5.196;2023-12-20T05:32:01;15.17;;;2.70;;
20731;SDS011;10527;52.124;5.196;2023-12-20T05:34:31;13.53;;;2.83;;
20731;SDS011;10527;52.124;5.196;2023-12-20T05:36:58;10.37;;;2.53;;
20731;SDS011;10527;52.124;5.196;2023-12-20T05:39:28;16.07;;;2.70;;
20731;SDS011;10527;52.124;5.196;2023-12-20T05:41:57;12.53;;;2.87;;
20731;SDS011;10527;52.124;5.196;2023-12-20T05:44:24;11.43;;;3.47;;
20731;SDS011;10527;52.124;5.196;2023-12-20T05:46:53;8.07;;;1.63;;
20731;SDS011;10527;52.124;5.196;2023-12-20T05:49:20;10.47;;;2.90;;
20731;SDS011;10527;52.124;5.196;2023-12-20T05:51:48;14.20;;;2.40;;
20731;SDS011;10527;52.124;5.196;2023-12-20T05:54:17;9.93;;;2.23;;
20731;SDS011;10527;52.124;5.196;2023-12-20T05:56:45;12.03;;;2.20;;
20731;SDS011;10527;52.124;5.196;2023-12-20T05:59:12;10.93;;;2.20;;
20731;SDS011;10527;52.124;5.196;2023-12-20T06:01:40;8.73;;;2.07;;
20731;SDS011;10527;52.124;5.196;2023-12-20T06:04:07;9.97;;;2.07;;
20731;SDS011;10527;52.124;5.196;2023-12-20T06:06:40;13.77;;;2.53;;
20731;SDS011;10527;52.124;5.196;2023-12-20T06:09:09;8.70;;;2.23;;
20731;SDS011;10527;52.124;5.196;2023-12-20T06:11:37;11.43;;;1.93;;
20731;SDS011;10527;52.124;5.196;2023-12-20T06:14:05;16.33;;;2.83;;
20731;SDS011;10527;52.124;5.196;2023-12-20T06:16:32;11.03;;;3.03;;
20731;SDS011;10527;52.124;5.196;2023-12-20T06:19:00;15.70;;;3.47;;
20731;SDS011;10527;52.124;5.196;2023-12-20T06:21:28;18.97;;;2.93;;
20731;SDS011;10527;52.124;5.196;2023-12-20T06:23:55;7.23;;;2.60;;
20731;SDS011;10527;52.124;5.196;2023-12-20T06:26:22;8.37;;;2.57;;
20731;SDS011;10527;52.124;5.196;2023-12-20T06:28:50;11.70;;;3.03;;
20731;SDS011;10527;52.124;5.196;2023-12-20T06:31:17;12.43;;;2.20;;
20731;SDS011;10527;52.124;5.196;2023-12-20T06:33:45;10.20;;;2.20;;
20731;SDS011;10527;52.124;5.196;2023-12-20T06:36:12;16.00;;;3.47;;
20731;SDS011;10527;52.124;5.196;2023-12-20T06:38:40;9.47;;;2.03;;
20731;SDS011;10527;52.124;5.196;2023-12-20T06:41:08;13.73;;;3.77;;
20731;SDS011;10527;52.124;5.196;2023-12-20T06:43:40;9.40;;;2.73;;
20731;SDS011;10527;52.124;5.196;2023-12-20T06:46:15;14.37;;;2.70;;
20731;SDS011;10527;52.124;5.196;2023-12-20T06:48:43;10.63;;;2.37;;
20731;SDS011;10527;52.124;5.196;2023-12-20T06:53:42;11.80;;;2.83;;
20731;SDS011;10527;52.124;5.196;2023-12-20T06:56:10;16.60;;;2.50;;
20731;SDS011;10527;52.124;5.196;2023-12-20T06:58:43;15.93;;;3.17;;
20731;SDS011;10527;52.124;5.196;2023-12-20T07:01:14;14.30;;;2.90;;
20731;SDS011;10527;52.124;5.196;2023-12-20T07:03:43;13.30;;;3.00;;
20731;SDS011;10527;52.124;5.196;2023-12-20T07:06:11;16.93;;;2.63;;
20731;SDS011;10527;52.124;5.196;2023-12-20T07:08:39;7.63;;;2.50;;
20731;SDS011;10527;52.124;5.196;2023-12-20T07:11:07;16.13;;;3.47;;
20731;SDS011;10527;52.124;5.196;2023-12-20T07:13:34;14.60;;;3.33;;
20731;SDS011;10527;52.124;5.196;2023-12-20T07:16:02;12.50;;;2.50;;
20731;SDS011;10527;52.124;5.196;2023-12-20T07:18:30;15.43;;;3.40;;
20731;SDS011;10527;52.124;5.196;2023-12-20T07:20:58;11.07;;;2.40;;
20731;SDS011;10527;52.124;5.196;2023-12-20T07:23:25;12.93;;;3.60;;
20731;SDS011;10527;52.124;5.196;2023-12-20T07:25:53;18.27;;;2.57;;
20731;SDS011;10527;52.124;5.196;2023-12-20T07:28:20;14.27;;;2.67;;
20731;SDS011;10527;52.124;5.196;2023-12-20T07:30:48;13.37;;;2.37;;
20731;SDS011;10527;52.124;5.196;2023-12-20T07:33:15;10.50;;;2.47;;
20731;SDS011;10527;52.124;5.196;2023-12-20T07:35:49;14.53;;;2.73;;
20731;SDS011;10527;52.124;5.196;2023-12-20T07:38:30;12.63;;;2.70;;
20731;SDS011;10527;52.124;5.196;2023-12-20T07:40:57;16.60;;;3.07;;
20731;SDS011;10527;52.124;5.196;2023-12-20T07:43:25;12.83;;;2.23;;
20731;SDS011;10527;52.124;5.196;2023-12-20T07:45:52;14.57;;;3.10;;
20731;SDS011;10527;52.124;5.196;2023-12-20T07:48:20;17.40;;;2.70;;
20731;SDS011;10527;52.124;5.196;2023-12-20T07:50:47;10.73;;;2.60;;
20731;SDS011;10527;52.124;5.196;2023-12-20T07:53:15;9.47;;;2.40;;
20731;SDS011;10527;52.124;5.196;2023-12-20T07:55:42;10.93;;;2.53;;
20731;SDS011;10527;52.124;5.196;2023-12-20T07:58:09;15.60;;;3.37;;
20731;SDS011;10527;52.124;5.196;2023-12-20T08:00:37;11.40;;;3.60;;
20731;SDS011;10527;52.124;5.196;2023-12-20T08:03:04;11.90;;;2.37;;
20731;SDS011;10527;52.124;5.196;2023-12-20T08:05:32;12.37;;;3.37;;
20731;SDS011;10527;52.124;5.196;2023-12-20T08:07:59;8.47;;;2.60;;
20731;SDS011;10527;52.124;5.196;2023-12-20T08:10:26;19.17;;;3.10;;
20731;SDS011;10527;52.124;5.196;2023-12-20T08:12:56;16.80;;;4.00;;
20731;SDS011;10527;52.124;5.196;2023-12-20T08:15:24;19.10;;;3.60;;
20731;SDS011;10527;52.124;5.196;2023-12-20T08:17:51;10.03;;;2.53;;
20731;SDS011;10527;52.124;5.196;2023-12-20T08:20:19;13.00;;;2.47;;
20731;SDS011;10527;52.124;5.196;2023-12-20T08:22:57;17.03;;;4.07;;
20731;SDS011;10527;52.124;5.196;2023-12-20T08:25:25;17.30;;;3.00;;
20731;SDS011;10527;52.124;5.196;2023-12-20T08:27:53;13.00;;;3.37;;
20731;SDS011;10527;52.124;5.196;2023-12-20T08:30:21;19.90;;;3.30;;
20731;SDS011;10527;52.124;5.196;2023-12-20T08:32:49;15.87;;;2.83;;
20731;SDS011;10527;52.124;5.196;2023-12-20T08:35:16;21.87;;;4.30;;
20731;SDS011;10527;52.124;5.196;2023-12-20T08:37:45;16.77;;;3.07;;
20731;SDS011;10527;52.124;5.196;2023-12-20T08:40:13;11.73;;;2.87;;
20731;SDS011;10527;52.124;5.196;2023-12-20T08:42:40;18.37;;;2.50;;
20731;SDS011;10527;52.124;5.196;2023-12-20T08:45:08;14.10;;;2.83;;
20731;SDS011;10527;52.124;5.196;2023-12-20T08:47:36;12.53;;;2.07;;
20731;SDS011;10527;52.124;5.196;2023-12-20T08:50:03;11.43;;;2.20;;
20731;SDS011;10527;52.124;5.196;2023-12-20T08:52:32;16.07;;;2.63;;
20731;SDS011;10527;52.124;5.196;2023-12-20T08:54:59;10.53;;;2.33;;
20731;SDS011;10527;52.124;5.196;2023-12-20T08:57:27;13.13;;;3.07;;
20731;SDS011;10527;52.124;5.196;2023-12-20T08:59:55;15.60;;;3.00;;
20731;SDS011;10527;52.124;5.196;2023-12-20T09:02:22;10.23;;;2.57;;
20731;SDS011;10527;52.124;5.196;2023-12-20T09:04:50;11.50;;;2.60;;
20731;SDS011;10527;52.124;5.196;2023-12-20T09:07:21;10.67;;;2.40;;
20731;SDS011;10527;52.124;5.196;2023-12-20T09:09:50;12.70;;;2.60;;
20731;SDS011;10527;52.124;5.196;2023-12-20T09:12:18;14.13;;;2.93;;
20731;SDS011;10527;52.124;5.196;2023-12-20T09:14:49;9.73;;;1.97;;
20731;SDS011;10527;52.124;5.196;2023-12-20T09:17:18;15.57;;;3.07;;
20731;SDS011;10527;52.124;5.196;2023-12-20T09:19:47;13.57;;;2.63;;
20731;SDS011;10527;52.124;5.196;2023-12-20T09:22:15;11.40;;;2.70;;
20731;SDS011;10527;52.124;5.196;2023-12-20T09:24:42;11.83;;;2.13;;
20731;SDS011;10527;52.124;5.196;2023-12-20T09:27:10;27.90;;;4.10;;
20731;SDS011;10527;52.124;5.196;2023-12-20T09:29:37;15.63;;;3.93;;
20731;SDS011;10527;52.124;5.196;2023-12-20T09:32:05;14.73;;;4.17;;
20731;SDS011;10527;52.124;5.196;2023-12-20T09:34:32;15.93;;;3.07;;
20731;SDS011;10527;52.124;5.196;2023-12-20T09:37:00;14.53;;;2.20;;
20731;SDS011;10527;52.124;5.196;2023-12-20T09:39:29;11.10;;;1.77;;
20731;SDS011;10527;52.124;5.196;2023-12-20T09:42:01;12.47;;;2.70;;
20731;SDS011;10527;52.124;5.196;2023-12-20T09:44:30;15.60;;;2.83;;
20731;SDS011;10527;52.124;5.196;2023-12-20T09:47:03;11.33;;;2.23;;
20731;SDS011;10527;52.124;5.196;2023-12-20T09:49:34;10.37;;;2.43;;
20731;SDS011;10527;52.124;5.196;2023-12-20T09:52:02;14.80;;;2.73;;
20731;SDS011;10527;52.124;5.196;2023-12-20T09:54:31;9.23;;;2.60;;
20731;SDS011;10527;52.124;5.196;2023-12-20T09:56:58;16.63;;;3.70;;
20731;SDS011;10527;52.124;5.196;2023-12-20T09:59:26;16.60;;;6.47;;
20731;SDS011;10527;52.124;5.196;2023-12-20T10:01:54;18.50;;;9.50;;
20731;SDS011;10527;52.124;5.196;2023-12-20T10:04:25;18.23;;;11.07;;
20731;SDS011;10527;52.124;5.196;2023-12-20T10:06:56;10.50;;;3.93;;
20731;SDS011;10527;52.124;5.196;2023-12-20T10:09:24;12.20;;;3.27;;
20731;SDS011;10527;52.124;5.196;2023-12-20T10:11:54;15.30;;;2.87;;
20731;SDS011;10527;52.124;5.196;2023-12-20T10:14:23;13.73;;;4.23;;
20731;SDS011;10527;52.124;5.196;2023-12-20T10:16:50;19.97;;;9.23;;
20731;SDS011;10527;52.124;5.196;2023-12-20T10:19:19;27.03;;;13.83;;
20731;SDS011;10527;52.124;5.196;2023-12-20T10:21:47;21.83;;;6.93;;
20731;SDS011;10527;52.124;5.196;2023-12-20T10:24:19;14.33;;;4.37;;
20731;SDS011;10527;52.124;5.196;2023-12-20T10:26:49;15.87;;;3.23;;
20731;SDS011;10527;52.124;5.196;2023-12-20T10:29:34;10.40;;;3.17;;
20731;SDS011;10527;52.124;5.196;2023-12-20T10:32:23;13.10;;;2.37;;
20731;SDS011;10527;52.124;5.196;2023-12-20T10:34:52;10.80;;;2.40;;
20731;SDS011;10527;52.124;5.196;2023-12-20T10:37:21;14.57;;;2.47;;
20731;SDS011;10527;52.124;5.196;2023-12-20T10:39:50;9.47;;;1.87;;
20731;SDS011;10527;52.124;5.196;2023-12-20T10:42:22;14.13;;;3.00;;
20731;SDS011;10527;52.124;5.196;2023-12-20T10:44:53;12.57;;;2.70;;
20731;SDS011;10527;52.124;5.196;2023-12-20T10:47:20;9.63;;;2.50;;
20731;SDS011;10527;52.124;5.196;2023-12-20T10:49:48;10.70;;;2.67;;
20731;SDS011;10527;52.124;5.196;2023-12-20T10:52:18;14.07;;;2.40;;
20731;SDS011;10527;52.124;5.196;2023-12-20T10:54:49;10.00;;;2.10;;
20731;SDS011;10527;52.124;5.196;2023-12-20T10:57:16;15.80;;;2.50;;
20731;SDS011;10527;52.124;5.196;2023-12-20T10:59:45;14.57;;;2.97;;
20731;SDS011;10527;52.124;5.196;2023-12-20T11:02:20;11.03;;;2.57;;
20731;SDS011;10527;52.124;5.196;2023-12-20T11:05:10;10.83;;;2.70;;
20731;SDS011;10527;52.124;5.196;2023-12-20T11:08:01;10.30;;;2.27;;
20731;SDS011;10527;52.124;5.196;2023-12-20T11:11:02;9.33;;;1.93;;
20731;SDS011;10527;52.124;5.196;2023-12-20T11:14:03;11.73;;;2.27;;
20731;SDS011;10527;52.124;5.196;2023-12-20T11:16:38;16.10;;;6.50;;
20731;SDS011;10527;52.124;5.196;2023-12-20T11:19:19;9.20;;;2.77;;
20731;SDS011;10527;52.124;5.196;2023-12-20T11:21:47;7.87;;;2.70;;
20731;SDS011;10527;52.124;5.196;2023-12-20T11:24:15;13.40;;;2.40;;
20731;SDS011;10527;52.124;5.196;2023-12-20T11:26:47;10.00;;;2.40;;
20731;SDS011;10527;52.124;5.196;2023-12-20T11:32:02;18.43;;;2.30;;
20731;SDS011;10527;52.124;5.196;2023-12-20T11:34:31;13.60;;;1.97;;
20731;SDS011;10527;52.124;5.196;2023-12-20T11:37:00;8.27;;;2.40;;
20731;SDS011;10527;52.124;5.196;2023-12-20T11:39:30;11.43;;;2.40;;
20731;SDS011;10527;52.124;5.196;2023-12-20T11:42:03;9.20;;;1.60;;
20731;SDS011;10527;52.124;5.196;2023-12-20T11:44:34;12.83;;;3.23;;
20731;SDS011;10527;52.124;5.196;2023-12-20T11:47:04;14.30;;;2.57;;
20731;SDS011;10527;52.124;5.196;2023-12-20T11:49:31;10.40;;;2.10;;
20731;SDS011;10527;52.124;5.196;2023-12-20T11:52:00;12.70;;;1.83;;
20731;SDS011;10527;52.124;5.196;2023-12-20T11:54:29;11.50;;;1.97;;
20731;SDS011;10527;52.124;5.196;2023-12-20T11:56:57;9.87;;;2.10;;
20731;SDS011;10527;52.124;5.196;2023-12-20T11:59:24;7.20;;;1.57;;
20731;SDS011;10527;52.124;5.196;2023-12-20T12:01:52;10.33;;;2.33;;
20731;SDS011;10527;52.124;5.196;2023-12-20T12:04:23;11.90;;;2.10;;
20731;SDS011;10527;52.124;5.196;2023-12-20T12:06:50;8.20;;;1.93;;
20731;SDS011;10527;52.124;5.196;2023-12-20T12:09:17;15.97;;;3.93;;
20731;SDS011;10527;52.124;5.196;2023-12-20T12:11:45;25.83;;;13.85;;
20731;SDS011;10527;52.124;5.196;2023-12-20T12:14:13;27.43;;;12.80;;
20731;SDS011;10527;52.124;5.196;2023-12-20T12:16:43;12.67;;;3.97;;
20731;SDS011;10527;52.124;5.196;2023-12-20T12:19:24;9.93;;;2.20;;
20731;SDS011;10527;52.124;5.196;2023-12-20T12:22:25;10.73;;;2.03;;
20731;SDS011;10527;52.124;5.196;2023-12-20T12:24:47;16.87;;;2.10;;
20731;SDS011;10527;52.124;5.196;2023-12-20T12:27:15;8.03;;;2.33;;
20731;SDS011;10527;52.124;5.196;2023-12-20T12:30:00;9.63;;;1.83;;
20731;SDS011;10527;52.124;5.196;2023-12-20T12:32:29;9.00;;;1.80;;
20731;SDS011;10527;52.124;5.196;2023-12-20T12:34:57;14.63;;;2.27;;
20731;SDS011;10527;52.124;5.196;2023-12-20T12:37:24;9.80;;;1.83;;
20731;SDS011;10527;52.124;5.196;2023-12-20T12:39:53;12.23;;;3.30;;
20731;SDS011;10527;52.124;5.196;2023-12-20T12:42:21;9.93;;;2.17;;
20731;SDS011;10527;52.124;5.196;2023-12-20T12:44:52;10.87;;;2.37;;
20731;SDS011;10527;52.124;5.196;2023-12-20T12:47:19;10.57;;;2.20;;
20731;SDS011;10527;52.124;5.196;2023-12-20T12:49:47;9.20;;;3.07;;
20731;SDS011;10527;52.124;5.196;2023-12-20T12:52:15;10.07;;;2.50;;
20731;SDS011;10527;52.124;5.196;2023-12-20T12:54:43;11.13;;;2.33;;
20731;SDS011;10527;52.124;5.196;2023-12-20T12:57:11;12.17;;;2.80;;
20731;SDS011;10527;52.124;5.196;2023-12-20T12:59:40;13.50;;;1.87;;
20731;SDS011;10527;52.124;5.196;2023-12-20T13:02:09;12.07;;;2.10;;
20731;SDS011;10527;52.124;5.196;2023-12-20T13:04:37;12.20;;;3.07;;
20731;SDS011;10527;52.124;5.196;2023-12-20T13:07:05;9.60;;;2.77;;
20731;SDS011;10527;52.124;5.196;2023-12-20T13:09:34;12.02;;;2.55;;
20731;SDS011;10527;52.124;5.196;2023-12-20T13:12:01;11.33;;;1.87;;
20731;SDS011;10527;52.124;5.196;2023-12-20T13:14:33;7.67;;;1.83;;
20731;SDS011;10527;52.124;5.196;2023-12-20T13:17:04;11.87;;;2.23;;
20731;SDS011;10527;52.124;5.196;2023-12-20T13:19:32;11.57;;;2.17;;
20731;SDS011;10527;52.124;5.196;2023-12-20T13:22:00;11.33;;;1.83;;
20731;SDS011;10527;52.124;5.196;2023-12-20T13:24:27;23.10;;;3.50;;
20731;SDS011;10527;52.124;5.196;2023-12-20T13:26:55;11.67;;;2.70;;
20731;SDS011;10527;52.124;5.196;2023-12-20T13:29:23;14.77;;;2.37;;
20731;SDS011;10527;52.124;5.196;2023-12-20T13:31:53;14.10;;;5.07;;
20731;SDS011;10527;52.124;5.196;2023-12-20T13:34:21;13.90;;;3.43;;
20731;SDS011;10527;52.124;5.196;2023-12-20T13:36:49;11.70;;;2.80;;
20731;SDS011;10527;52.124;5.196;2023-12-20T13:39:17;12.97;;;2.37;;
20731;SDS011;10527;52.124;5.196;2023-12-20T13:41:45;9.93;;;2.10;;
20731;SDS011;10527;52.124;5.196;2023-12-20T13:44:12;13.17;;;1.97;;
20731;SDS011;10527;52.124;5.196;2023-12-20T13:46:40;12.25;;;1.92;;
20731;SDS011;10527;52.124;5.196;2023-12-20T13:49:08;9.83;;;1.80;;
20731;SDS011;10527;52.124;5.196;2023-12-20T13:51:36;12.97;;;2.30;;
20731;SDS011;10527;52.124;5.196;2023-12-20T13:54:03;9.07;;;2.17;;
20731;SDS011;10527;52.124;5.196;2023-12-20T13:56:31;9.87;;;1.77;;
20731;SDS011;10527;52.124;5.196;2023-12-20T13:59:12;8.30;;;1.90;;
20731;SDS011;10527;52.124;5.196;2023-12-20T14:01:41;10.10;;;1.70;;
20731;SDS011;10527;52.124;5.196;2023-12-20T14:04:08;8.98;;;1.95;;
20731;SDS011;10527;52.124;5.196;2023-12-20T14:06:57;8.57;;;2.00;;
20731;SDS011;10527;52.124;5.196;2023-12-20T14:09:24;9.13;;;2.67;;
20731;SDS011;10527;52.124;5.196;2023-12-20T14:11:52;10.00;;;2.47;;
20731;SDS011;10527;52.124;5.196;2023-12-20T14:14:22;9.30;;;2.03;;
20731;SDS011;10527;52.124;5.196;2023-12-20T14:16:50;13.03;;;2.40;;
20731;SDS011;10527;52.124;5.196;2023-12-20T14:19:17;9.47;;;2.00;;
20731;SDS011;10527;52.124;5.196;2023-12-20T14:21:44;7.77;;;1.60;;
20731;SDS011;10527;52.124;5.196;2023-12-20T14:24:12;9.13;;;2.10;;
20731;SDS011;10527;52.124;5.196;2023-12-20T14:26:41;9.80;;;1.80;;
20731;SDS011;10527;52.124;5.196;2023-12-20T14:29:08;14.10;;;2.40;;
20731;SDS011;10527;52.124;5.196;2023-12-20T14:31:36;12.10;;;2.40;;
20731;SDS011;10527;52.124;5.196;2023-12-20T14:34:05;10.73;;;2.27;;
20731;SDS011;10527;52.124;5.196;2023-12-20T14:36:34;10.93;;;1.77;;
20731;SDS011;10527;52.124;5.196;2023-12-20T14:39:01;13.10;;;3.73;;
20731;SDS011;10527;52.124;5.196;2023-12-20T14:41:30;14.83;;;3.13;;
20731;SDS011;10527;52.124;5.196;2023-12-20T14:43:58;11.70;;;1.57;;
20731;SDS011;10527;52.124;5.196;2023-12-20T14:46:31;10.93;;;1.77;;
20731;SDS011;10527;52.124;5.196;2023-12-20T14:48:59;10.90;;;2.27;;
20731;SDS011;10527;52.124;5.196;2023-12-20T14:51:28;16.27;;;2.53;;
20731;SDS011;10527;52.124;5.196;2023-12-20T14:53:56;9.13;;;2.23;;